createdAt,value
2023-05-06T00:00:57.218Z,100.00
2023-05-06T00:03:23.771Z,100.00
2023-05-06T00:05:50.359Z,100.00
2023-05-06T00:08:16.923Z,100.00
2023-05-06T00:10:43.414Z,100.00
2023-05-06T00:13:09.920Z,100.00
2023-05-06T00:15:36.876Z,100.00
2023-05-06T00:18:03.452Z,100.00
2023-05-06T00:20:29.949Z,100.00
2023-05-06T00:22:56.447Z,100.00
2023-05-06T00:25:22.931Z,100.00
2023-05-06T00:27:49.453Z,100.00
2023-05-06T00:30:15.958Z,100.00
2023-05-06T00:32:42.710Z,100.00
2023-05-06T00:35:09.819Z,100.00
2023-05-06T00:37:36.463Z,100.00
2023-05-06T00:40:03.567Z,100.00
2023-05-06T00:42:30.025Z,100.00
2023-05-06T00:44:56.534Z,100.00
2023-05-06T00:47:24.570Z,100.00
2023-05-06T00:49:51.425Z,100.00
2023-05-06T00:52:19.433Z,100.00
2023-05-06T00:54:46.232Z,100.00
2023-05-06T00:57:13.181Z,100.00
2023-05-06T00:59:39.761Z,100.00
2023-05-06T01:02:06.222Z,100.00
2023-05-06T01:04:33.710Z,100.00
2023-05-06T01:07:25.095Z,100.00
2023-05-06T01:09:57.237Z,100.00
2023-05-06T01:12:34.011Z,100.00
2023-05-06T01:15:25.387Z,100.00
2023-05-06T01:17:53.801Z,100.00
2023-05-06T01:20:21.584Z,100.00
2023-05-06T01:22:49.667Z,100.00
2023-05-06T01:25:20.568Z,100.00
2023-05-06T01:27:47.084Z,100.00
2023-05-06T01:30:16.392Z,100.00
2023-05-06T01:32:50.004Z,100.00
2023-05-06T01:35:53.826Z,100.00
2023-05-06T01:38:52.882Z,100.00
2023-05-06T01:41:21.321Z,100.00
2023-05-06T01:43:49.010Z,100.00
2023-05-06T01:46:18.926Z,100.00
2023-05-06T01:48:46.890Z,100.00
2023-05-06T01:51:13.326Z,100.00
2023-05-06T01:53:39.849Z,100.00
2023-05-06T01:56:06.971Z,100.00
2023-05-06T01:58:33.445Z,100.00
2023-05-06T02:00:59.837Z,100.00
2023-05-06T02:03:26.917Z,100.00
2023-05-06T02:05:53.407Z,100.00
2023-05-06T02:08:20.313Z,100.00
2023-05-06T02:10:46.757Z,100.00
2023-05-06T02:13:13.273Z,100.00
2023-05-06T02:15:39.705Z,100.00
2023-05-06T02:18:06.186Z,100.00
2023-05-06T02:20:32.636Z,100.00
2023-05-06T02:22:59.060Z,100.00
2023-05-06T02:25:25.516Z,100.00
2023-05-06T02:27:51.966Z,100.00
2023-05-06T02:30:18.482Z,100.00
2023-05-06T02:32:44.977Z,100.00
2023-05-06T02:35:11.610Z,100.00
2023-05-06T02:37:38.312Z,100.00
2023-05-06T02:40:06.624Z,100.00
2023-05-06T02:42:35.374Z,100.00
2023-05-06T02:45:02.561Z,100.00
2023-05-06T02:47:29.037Z,100.00
2023-05-06T02:49:55.651Z,100.00
2023-05-06T02:52:22.089Z,100.00
2023-05-06T02:54:48.668Z,100.00
2023-05-06T02:57:15.124Z,100.00
2023-05-06T02:59:41.609Z,100.00
2023-05-06T03:02:08.136Z,100.00
2023-05-06T03:04:34.632Z,100.00
2023-05-06T03:07:01.090Z,100.00
2023-05-06T03:09:27.537Z,100.00
2023-05-06T03:11:53.931Z,100.00
2023-05-06T03:14:20.726Z,100.00
2023-05-06T03:16:47.251Z,100.00
2023-05-06T03:19:13.811Z,100.00
2023-05-06T03:21:40.724Z,100.00
2023-05-06T03:24:07.346Z,100.00
2023-05-06T03:26:33.801Z,100.00
2023-05-06T03:29:00.264Z,100.00
2023-05-06T03:31:26.958Z,100.00
2023-05-06T03:33:53.391Z,100.00
2023-05-06T03:36:19.974Z,100.00
2023-05-06T03:38:46.386Z,100.00
2023-05-06T03:41:12.969Z,100.00
2023-05-06T03:43:39.949Z,100.00
2023-05-06T03:46:06.463Z,100.00
2023-05-06T03:48:32.934Z,100.00
2023-05-06T03:50:59.485Z,100.00
2023-05-06T03:53:25.994Z,100.00
2023-05-06T03:55:52.507Z,100.00
2023-05-06T03:58:18.973Z,100.00
2023-05-06T04:00:45.738Z,100.00
2023-05-06T04:03:12.338Z,100.00
2023-05-06T04:05:38.891Z,100.00
2023-05-06T04:08:05.587Z,100.00
2023-05-06T04:10:32.327Z,100.00
2023-05-06T04:12:58.787Z,100.00
2023-05-06T04:15:25.262Z,100.00
2023-05-06T04:17:51.733Z,100.00
2023-05-06T04:20:18.325Z,100.00
2023-05-06T04:22:44.748Z,100.00
2023-05-06T04:25:12.076Z,100.00
2023-05-06T04:27:38.801Z,100.00
2023-05-06T04:30:05.807Z,100.00
2023-05-06T04:32:34.131Z,100.00
2023-05-06T04:35:00.717Z,100.00
2023-05-06T04:37:28.335Z,100.00
2023-05-06T04:39:55.823Z,100.00
2023-05-06T04:42:22.263Z,100.00
2023-05-06T04:44:49.190Z,100.00
2023-05-06T04:47:16.173Z,100.00
2023-05-06T04:49:42.612Z,100.00
2023-05-06T04:52:09.091Z,100.00
2023-05-06T04:54:35.670Z,100.00
2023-05-06T04:57:03.441Z,100.00
2023-05-06T04:59:29.887Z,100.00
2023-05-06T05:01:56.325Z,100.00
2023-05-06T05:04:22.806Z,100.00
2023-05-06T05:06:49.265Z,100.00
2023-05-06T05:09:15.962Z,100.00
2023-05-06T05:11:42.440Z,100.00
2023-05-06T05:14:08.879Z,100.00
2023-05-06T05:16:35.614Z,100.00
2023-05-06T05:19:03.740Z,100.00
2023-05-06T05:21:30.698Z,100.00
2023-05-06T05:23:57.190Z,100.00
2023-05-06T05:26:23.638Z,100.00
2023-05-06T05:28:50.139Z,100.00
2023-05-06T05:31:16.622Z,100.00
2023-05-06T05:33:43.231Z,100.00
2023-05-06T05:36:12.355Z,100.00
2023-05-06T05:38:38.786Z,100.00
2023-05-06T05:41:05.336Z,100.00
2023-05-06T05:43:31.888Z,100.00
2023-05-06T05:45:58.399Z,100.00
2023-05-06T05:48:24.841Z,100.00
2023-05-06T05:50:51.276Z,100.00
2023-05-06T05:53:17.761Z,100.00
2023-05-06T05:55:44.176Z,100.00
2023-05-06T05:58:11.644Z,100.00
2023-05-06T06:00:38.110Z,100.00
2023-05-06T06:03:04.787Z,100.00
2023-05-06T06:05:31.366Z,100.00
2023-05-06T06:07:58.745Z,100.00
2023-05-06T06:10:25.536Z,100.00
2023-05-06T06:12:52.227Z,100.00
2023-05-06T06:15:18.725Z,100.00
2023-05-06T06:17:45.386Z,100.00
2023-05-06T06:20:12.828Z,100.00
2023-05-06T06:22:39.336Z,100.00
2023-05-06T06:25:06.295Z,100.00
2023-05-06T06:27:36.651Z,100.00
2023-05-06T06:30:04.862Z,100.00
2023-05-06T06:32:31.367Z,100.00
2023-05-06T06:34:57.867Z,100.00
2023-05-06T06:37:24.392Z,100.00
2023-05-06T06:39:50.884Z,100.00
2023-05-06T06:42:17.454Z,100.00
2023-05-06T06:44:44.102Z,100.00
2023-05-06T06:47:10.567Z,100.00
2023-05-06T06:49:36.987Z,100.00
2023-05-06T06:52:03.533Z,100.00
2023-05-06T06:54:29.947Z,100.00
2023-05-06T06:56:57.358Z,100.00
2023-05-06T06:59:23.994Z,100.00
2023-05-06T07:01:51.155Z,100.00
2023-05-06T07:04:17.637Z,100.00
2023-05-06T07:06:44.272Z,100.00
2023-05-06T07:09:10.814Z,100.00
2023-05-06T07:11:37.287Z,100.00
2023-05-06T07:14:03.749Z,100.00
2023-05-06T07:16:30.290Z,100.00
2023-05-06T07:18:56.790Z,100.00
2023-05-06T07:21:23.275Z,100.00
2023-05-06T07:23:50.295Z,100.00
2023-05-06T07:26:16.728Z,100.00
2023-05-06T07:28:43.213Z,100.00
2023-05-06T07:31:09.846Z,100.00
2023-05-06T07:33:36.384Z,100.00
2023-05-06T07:36:03.136Z,100.00
2023-05-06T07:38:29.579Z,100.00
2023-05-06T07:40:56.105Z,100.00
2023-05-06T07:43:22.975Z,100.00
2023-05-06T07:45:49.645Z,100.00
2023-05-06T07:48:18.608Z,100.00
2023-05-06T07:50:46.241Z,100.00
2023-05-06T07:53:13.911Z,100.00
2023-05-06T07:55:40.437Z,100.00
2023-05-06T07:58:06.946Z,100.00
2023-05-06T08:00:33.419Z,100.00
2023-05-06T08:03:00.113Z,100.00
2023-05-06T08:05:27.005Z,100.00
2023-05-06T08:07:54.163Z,100.00
2023-05-06T08:10:22.217Z,99.03
2023-05-06T08:12:49.097Z,99.44
2023-05-06T08:15:16.326Z,98.60
2023-05-06T08:17:42.865Z,98.58
2023-05-06T08:20:10.431Z,97.52
2023-05-06T08:22:36.916Z,98.07
2023-05-06T08:25:03.715Z,99.02
2023-05-06T08:27:30.177Z,98.29
2023-05-06T08:29:56.716Z,97.87
2023-05-06T08:32:23.400Z,97.02
2023-05-06T08:34:49.906Z,95.44
2023-05-06T08:37:16.393Z,95.89
2023-05-06T08:39:42.890Z,95.54
2023-05-06T08:42:11.327Z,94.73
2023-05-06T08:44:38.190Z,94.14
2023-05-06T08:47:05.156Z,94.38
2023-05-06T08:49:32.114Z,95.12
2023-05-06T08:51:59.322Z,91.71
2023-05-06T08:54:26.633Z,90.68
2023-05-06T08:56:56.764Z,90.84
2023-05-06T08:59:25.454Z,90.29
2023-05-06T09:01:53.362Z,88.75
2023-05-06T09:04:19.930Z,90.08
2023-05-06T09:06:46.386Z,88.79
2023-05-06T09:09:14.827Z,88.64
2023-05-06T09:11:41.472Z,88.33
2023-05-06T09:14:17.841Z,88.51
2023-05-06T09:16:46.938Z,87.93
2023-05-06T09:19:15.882Z,88.51
2023-05-06T09:21:44.557Z,89.23
2023-05-06T09:24:12.495Z,88.86
2023-05-06T09:26:40.879Z,89.40
2023-05-06T09:29:07.419Z,88.67
2023-05-06T09:31:40.929Z,88.36
2023-05-06T09:34:07.706Z,86.99
2023-05-06T09:36:34.239Z,86.82
2023-05-06T09:39:00.843Z,87.19
2023-05-06T09:41:27.455Z,85.90
2023-05-06T09:43:55.293Z,83.72
2023-05-06T09:46:23.305Z,84.13
2023-05-06T09:48:51.554Z,85.31
2023-05-06T09:51:18.866Z,84.26
2023-05-06T09:53:45.618Z,83.31
2023-05-06T09:56:13.523Z,81.95
2023-05-06T09:58:40.791Z,83.79
2023-05-06T10:01:09.054Z,84.08
2023-05-06T10:03:36.946Z,83.45
2023-05-06T10:06:06.018Z,83.39
2023-05-06T10:08:33.854Z,83.47
2023-05-06T10:11:01.573Z,82.69
2023-05-06T10:13:28.345Z,80.37
2023-05-06T10:15:55.275Z,80.98
2023-05-06T10:18:22.291Z,79.41
2023-05-06T10:20:53.574Z,78.26
2023-05-06T10:23:37.640Z,78.52
2023-05-06T10:26:10.590Z,76.45
2023-05-06T10:28:41.979Z,72.49
2023-05-06T10:31:15.878Z,74.23
2023-05-06T10:33:46.076Z,74.86
2023-05-06T10:36:21.403Z,75.27
2023-05-06T10:38:56.630Z,74.21
2023-05-06T10:41:26.164Z,73.83
2023-05-06T10:43:56.788Z,73.03
2023-05-06T10:46:26.533Z,72.36
2023-05-06T10:49:11.621Z,72.96
2023-05-06T10:51:38.894Z,71.20
2023-05-06T10:54:22.925Z,71.12
2023-05-06T10:56:49.711Z,69.32
2023-05-06T10:59:21.667Z,69.96
2023-05-06T11:01:55.984Z,70.39
2023-05-06T11:04:22.820Z,68.57
2023-05-06T11:06:50.860Z,67.80
2023-05-06T11:09:26.741Z,67.01
2023-05-06T11:12:03.281Z,66.26
2023-05-06T11:14:37.821Z,66.05
2023-05-06T11:17:31.669Z,67.95
2023-05-06T11:20:22.964Z,67.50
2023-05-06T11:22:49.665Z,65.28
2023-05-06T11:25:42.998Z,65.38
2023-05-06T11:28:14.849Z,66.64
2023-05-06T11:30:54.988Z,66.23
2023-05-06T11:33:24.446Z,64.56
2023-05-06T11:35:50.898Z,62.78
2023-05-06T11:38:17.335Z,64.48
2023-05-06T11:40:43.786Z,62.09
2023-05-06T11:43:16.976Z,63.53
2023-05-06T11:45:45.446Z,63.47
2023-05-06T11:48:16.703Z,62.62
2023-05-06T11:50:47.382Z,63.47
2023-05-06T11:53:17.016Z,61.97
2023-05-06T11:55:44.606Z,62.32
2023-05-06T11:58:19.078Z,62.74
2023-05-06T12:00:52.890Z,61.71
2023-05-06T12:03:21.472Z,60.67
2023-05-06T12:05:49.049Z,60.96
2023-05-06T12:08:35.899Z,61.64
2023-05-06T12:11:06.335Z,60.18
2023-05-06T12:13:36.590Z,59.87
2023-05-06T12:16:05.686Z,60.26
2023-05-06T12:18:32.382Z,59.23
2023-05-06T12:21:02.597Z,58.47
2023-05-06T12:26:04.039Z,58.89
2023-05-06T12:28:32.500Z,59.78
2023-05-06T12:30:59.284Z,59.39
2023-05-06T12:33:26.014Z,59.40
2023-05-06T12:35:54.724Z,58.69
2023-05-06T12:38:21.305Z,58.04
2023-05-06T12:40:54.113Z,57.41
2023-05-06T12:43:29.312Z,57.68
2023-05-06T12:46:07.253Z,59.64
2023-05-06T12:48:33.883Z,56.51
2023-05-06T12:51:00.330Z,54.96
2023-05-06T12:53:35.233Z,55.29
2023-05-06T12:56:01.644Z,54.68
2023-05-06T12:58:28.126Z,53.80
2023-05-06T13:00:54.579Z,55.27
2023-05-06T13:03:21.152Z,54.06
2023-05-06T13:05:50.103Z,55.71
2023-05-06T13:08:16.664Z,56.37
2023-05-06T13:10:43.112Z,55.64
2023-05-06T13:13:09.573Z,56.82
2023-05-06T13:15:36.370Z,55.95
2023-05-06T13:18:02.999Z,55.89
2023-05-06T13:20:30.451Z,55.73
2023-05-06T13:22:57.207Z,55.68
2023-05-06T13:25:23.751Z,54.66
2023-05-06T13:27:50.213Z,54.96
2023-05-06T13:30:17.108Z,55.42
2023-05-06T13:32:45.421Z,54.39
2023-05-06T13:35:12.097Z,55.93
2023-05-06T13:37:38.783Z,54.95
2023-05-06T13:40:06.399Z,55.55
2023-05-06T13:42:33.088Z,55.59
2023-05-06T13:44:59.560Z,55.79
2023-05-06T13:47:26.862Z,55.27
2023-05-06T13:49:53.396Z,54.04
2023-05-06T13:52:19.804Z,53.86
2023-05-06T13:54:46.301Z,54.00
2023-05-06T13:57:13.250Z,53.90
2023-05-06T13:59:39.752Z,54.43
2023-05-06T14:02:09.373Z,52.66
2023-05-06T14:04:36.446Z,52.53
2023-05-06T14:07:02.982Z,53.17
2023-05-06T14:09:29.444Z,49.97
2023-05-06T14:11:55.936Z,49.79
2023-05-06T14:14:22.356Z,48.11
2023-05-06T14:16:48.945Z,49.68
2023-05-06T14:19:15.399Z,48.63
2023-05-06T14:21:41.847Z,49.24
2023-05-06T14:24:10.138Z,47.33
2023-05-06T14:26:36.586Z,47.46
2023-05-06T14:29:03.822Z,48.62
2023-05-06T14:31:30.372Z,47.70
2023-05-06T14:33:57.358Z,47.65
2023-05-06T14:36:23.834Z,48.63
2023-05-06T14:38:50.374Z,47.45
2023-05-06T14:41:16.860Z,47.62
2023-05-06T14:43:43.297Z,46.33
2023-05-06T14:46:11.226Z,46.81
2023-05-06T14:48:37.781Z,45.83
2023-05-06T14:51:04.215Z,44.73
2023-05-06T14:53:30.702Z,45.48
2023-05-06T14:55:57.131Z,46.14
2023-05-06T14:58:23.581Z,44.94
2023-05-06T15:00:50.098Z,45.32
2023-05-06T15:03:16.681Z,44.56
2023-05-06T15:05:43.230Z,46.10
2023-05-06T15:08:10.112Z,45.14
2023-05-06T15:10:36.676Z,45.62
2023-05-06T15:13:04.087Z,45.98
2023-05-06T15:15:30.577Z,47.39
2023-05-06T15:17:57.035Z,46.19
2023-05-06T15:20:23.577Z,46.72
2023-05-06T15:22:50.155Z,46.92
2023-05-06T15:25:26.564Z,47.96
2023-05-06T15:27:57.269Z,48.55
2023-05-06T15:30:23.787Z,49.63
2023-05-06T15:32:50.278Z,48.25
2023-05-06T15:35:16.756Z,48.73
2023-05-06T15:37:46.532Z,49.95
2023-05-06T15:40:13.390Z,50.24
2023-05-06T15:42:40.359Z,50.42
2023-05-06T15:45:07.682Z,49.92
2023-05-06T15:47:34.160Z,50.10
2023-05-06T15:50:01.589Z,50.22
2023-05-06T15:52:28.585Z,51.00
2023-05-06T15:54:59.484Z,50.35
2023-05-06T15:57:26.440Z,49.49
2023-05-06T15:59:52.876Z,49.08
2023-05-06T16:04:48.992Z,50.34
2023-05-06T16:07:15.670Z,49.56
2023-05-06T16:09:42.949Z,49.79
2023-05-06T16:12:10.058Z,49.81
2023-05-06T16:14:36.691Z,50.42
2023-05-06T16:17:03.518Z,50.10
2023-05-06T16:19:32.056Z,49.51
2023-05-06T16:21:58.580Z,48.72
2023-05-06T16:24:25.102Z,50.74
2023-05-06T16:26:51.885Z,49.58
2023-05-06T16:29:20.538Z,50.30
2023-05-06T16:31:47.804Z,49.42
2023-05-06T16:34:14.858Z,51.04
2023-05-06T16:36:41.557Z,49.38
2023-05-06T16:39:08.652Z,50.01
2023-05-06T16:41:35.230Z,49.71
2023-05-06T16:44:02.009Z,51.27
2023-05-06T16:46:28.877Z,50.66
2023-05-06T16:48:55.945Z,50.39
2023-05-06T16:51:22.659Z,50.86
2023-05-06T16:53:49.340Z,51.23
2023-05-06T16:56:16.088Z,51.15
2023-05-06T16:58:42.939Z,52.11
2023-05-06T17:01:09.702Z,51.11
2023-05-06T17:03:40.306Z,51.48
2023-05-06T17:06:07.319Z,51.58
2023-05-06T17:08:36.244Z,52.49
2023-05-06T17:11:06.743Z,51.93
2023-05-06T17:13:33.824Z,52.25
2023-05-06T17:16:00.424Z,52.73
2023-05-06T17:18:27.150Z,53.39
2023-05-06T17:20:56.683Z,52.74
2023-05-06T17:23:23.823Z,53.12
2023-05-06T17:25:50.942Z,53.72
2023-05-06T17:28:18.662Z,53.49
2023-05-06T17:30:45.690Z,52.55
2023-05-06T17:33:12.182Z,54.17
2023-05-06T17:35:38.596Z,55.32
2023-05-06T17:38:05.237Z,54.93
2023-05-06T17:40:32.032Z,54.61
2023-05-06T17:42:58.466Z,56.11
2023-05-06T17:45:26.747Z,57.08
2023-05-06T17:47:53.455Z,57.09
2023-05-06T17:50:20.934Z,58.77
2023-05-06T17:52:50.710Z,61.22
2023-05-06T17:55:17.893Z,63.92
2023-05-06T17:57:44.466Z,66.86
2023-05-06T18:00:11.916Z,69.57
2023-05-06T18:02:38.778Z,70.06
2023-05-06T18:05:06.566Z,71.57
2023-05-06T18:07:33.182Z,72.61
2023-05-06T18:09:59.762Z,73.67
2023-05-06T18:12:26.594Z,74.47
2023-05-06T18:14:55.287Z,76.00
2023-05-06T18:17:21.803Z,76.91
2023-05-06T18:19:48.409Z,77.62
2023-05-06T18:22:14.896Z,77.91
2023-05-06T18:24:41.340Z,79.33
2023-05-06T18:27:07.782Z,79.89
2023-05-06T18:29:35.111Z,80.26
2023-05-06T18:32:02.158Z,81.28
2023-05-06T18:34:28.768Z,82.01
2023-05-06T18:36:55.288Z,82.24
2023-05-06T18:39:25.997Z,82.94
2023-05-06T18:41:52.518Z,82.25
2023-05-06T18:44:19.387Z,83.14
2023-05-06T18:46:46.200Z,83.65
2023-05-06T18:49:14.406Z,83.88
2023-05-06T18:51:40.896Z,83.68
2023-05-06T18:54:07.627Z,83.00
2023-05-06T18:56:34.790Z,83.63
2023-05-06T18:59:01.243Z,83.66
2023-05-06T19:01:27.795Z,84.27
2023-05-06T19:03:54.543Z,84.24
2023-05-06T19:06:21.300Z,84.34
2023-05-06T19:08:47.714Z,84.79
2023-05-06T19:11:16.163Z,84.02
2023-05-06T19:13:43.747Z,83.84
2023-05-06T19:16:10.939Z,84.12
2023-05-06T19:18:37.433Z,84.30
2023-05-06T19:21:04.460Z,83.17
2023-05-06T19:23:32.828Z,82.70
2023-05-06T19:25:59.360Z,82.51
2023-05-06T19:28:26.100Z,83.08
2023-05-06T19:30:53.231Z,83.46
2023-05-06T19:33:19.717Z,83.24
2023-05-06T19:35:46.122Z,83.54
2023-05-06T19:38:13.142Z,84.11
2023-05-06T19:40:39.694Z,84.00
2023-05-06T19:43:06.177Z,84.41
2023-05-06T19:45:34.086Z,85.03
2023-05-06T19:48:01.213Z,84.98
2023-05-06T19:50:28.674Z,84.55
2023-05-06T19:52:55.212Z,85.58
2023-05-06T19:55:22.188Z,85.58
2023-05-06T19:57:49.828Z,85.68
2023-05-06T20:00:18.274Z,84.52
2023-05-06T20:02:45.369Z,85.14
2023-05-06T20:05:12.374Z,84.52
2023-05-06T20:07:39.452Z,85.05
2023-05-06T20:10:06.615Z,85.84
2023-05-06T20:12:33.391Z,86.34
2023-05-06T20:15:01.029Z,86.37
2023-05-06T20:17:27.606Z,86.06
2023-05-06T20:19:58.476Z,86.52
2023-05-06T20:22:26.021Z,86.52
2023-05-06T20:24:53.203Z,86.24
2023-05-06T20:27:22.540Z,87.03
2023-05-06T20:29:51.592Z,87.29
2023-05-06T20:32:18.160Z,86.84
2023-05-06T20:34:44.603Z,87.29
2023-05-06T20:37:11.916Z,87.27
2023-05-06T20:39:38.322Z,86.76
2023-05-06T20:42:04.796Z,86.94
2023-05-06T20:44:31.339Z,86.80
2023-05-06T20:46:57.844Z,86.97
2023-05-06T20:49:24.290Z,86.96
2023-05-06T20:51:50.903Z,87.32
2023-05-06T20:54:18.030Z,87.55
2023-05-06T20:56:44.683Z,87.34
2023-05-06T20:59:11.276Z,87.79
2023-05-06T21:01:37.836Z,88.25
2023-05-06T21:04:06.021Z,88.25
2023-05-06T21:06:32.508Z,88.35
2023-05-06T21:08:59.076Z,88.07
2023-05-06T21:11:27.702Z,88.21
2023-05-06T21:13:55.283Z,88.41
2023-05-06T21:16:21.860Z,88.92
2023-05-06T21:18:48.453Z,89.49
2023-05-06T21:21:15.028Z,89.30
2023-05-06T21:23:41.533Z,89.68
2023-05-06T21:26:08.998Z,89.53
2023-05-06T21:28:36.529Z,89.98
2023-05-06T21:31:03.532Z,90.02
2023-05-06T21:33:30.083Z,89.84
2023-05-06T21:35:56.519Z,90.45
2023-05-06T21:38:22.964Z,90.59
2023-05-06T21:40:49.422Z,90.08
2023-05-06T21:43:17.953Z,90.09
2023-05-06T21:45:44.775Z,89.74
2023-05-06T21:48:11.665Z,89.48
2023-05-06T21:50:38.325Z,89.44
2023-05-06T21:53:04.777Z,89.62
2023-05-06T21:55:31.419Z,90.36
2023-05-06T21:57:58.234Z,90.38
2023-05-06T22:00:24.750Z,90.33
2023-05-06T22:02:52.936Z,90.36
2023-05-06T22:05:19.594Z,90.81
2023-05-06T22:07:46.132Z,90.69
2023-05-06T22:10:13.494Z,91.07
2023-05-06T22:12:39.955Z,91.05
2023-05-06T22:15:07.455Z,91.14
2023-05-06T22:17:34.765Z,90.87
2023-05-06T22:20:02.917Z,91.12
2023-05-06T22:22:29.929Z,91.32
2023-05-06T22:24:56.399Z,91.24
2023-05-06T22:27:23.153Z,91.18
2023-05-06T22:29:49.704Z,91.52
2023-05-06T22:32:16.245Z,91.83
2023-05-06T22:34:42.719Z,91.93
2023-05-06T22:37:09.830Z,91.66
2023-05-06T22:39:36.416Z,91.61
2023-05-06T22:42:02.952Z,91.81
2023-05-06T22:44:29.368Z,91.71
2023-05-06T22:46:56.138Z,91.63
2023-05-06T22:49:23.422Z,91.56
2023-05-06T22:51:49.943Z,91.70
2023-05-06T22:54:16.503Z,92.17
2023-05-06T22:56:42.985Z,92.08
2023-05-06T22:59:09.482Z,91.88
2023-05-06T23:01:35.919Z,92.08
2023-05-06T23:04:02.531Z,92.10
2023-05-06T23:06:29.337Z,91.99
2023-05-06T23:08:55.766Z,92.07
2023-05-06T23:11:22.312Z,92.06
2023-05-06T23:13:48.766Z,92.15
2023-05-06T23:16:15.699Z,92.47
2023-05-06T23:18:42.203Z,92.12
2023-05-06T23:21:09.218Z,92.13
2023-05-06T23:23:35.777Z,91.91
2023-05-06T23:26:02.327Z,91.51
2023-05-06T23:28:29.035Z,91.73
2023-05-06T23:30:55.733Z,91.61
2023-05-06T23:33:22.460Z,91.60
2023-05-06T23:35:48.912Z,91.80
2023-05-06T23:38:15.526Z,91.81
2023-05-06T23:40:42.091Z,91.73
2023-05-06T23:43:09.949Z,91.91
2023-05-06T23:45:36.565Z,91.87
2023-05-06T23:48:03.627Z,91.71
2023-05-06T23:50:30.228Z,91.54
2023-05-06T23:52:56.647Z,91.91
2023-05-06T23:55:23.235Z,92.05
2023-05-06T23:57:49.748Z,91.84
